sensor_id;sensor_type;location;lat;lon;timestamp;P1;durP1;ratioP1;P2;durP2;ratioP2
13432;SDS011;6789;47.678;9.158;2023-02-03T00:02:40;2.63;;;0.93;;
13432;SDS011;6789;47.678;9.158;2023-02-03T00:07:32;2.77;;;0.67;;
13432;SDS011;6789;47.678;9.158;2023-02-03T00:12:26;2.57;;;1.03;;
13432;SDS011;6789;47.678;9.158;2023-02-03T00:17:18;2.00;;;0.87;;
13432;SDS011;6789;47.678;9.158;2023-02-03T00:22:10;2.60;;;1.10;;
13432;SDS011;6789;47.678;9.158;2023-02-03T00:27:01;2.97;;;1.00;;
13432;SDS011;6789;47.678;9.158;2023-02-03T00:31:53;2.47;;;0.73;;
13432;SDS011;6789;47.678;9.158;2023-02-03T00:36:46;1.47;;;0.60;;
13432;SDS011;6789;47.678;9.158;2023-02-03T00:41:38;2.17;;;0.80;;
13432;SDS011;6789;47.678;9.158;2023-02-03T00:46:30;2.90;;;0.63;;
13432;SDS011;6789;47.678;9.158;2023-02-03T00:51:21;1.60;;;0.90;;
13432;SDS011;6789;47.678;9.158;2023-02-03T00:56:13;1.77;;;0.90;;
13432;SDS011;6789;47.678;9.158;2023-02-03T01:01:05;4.07;;;0.87;;
13432;SDS011;6789;47.678;9.158;2023-02-03T01:11:08;4.50;;;0.90;;
13432;SDS011;6789;47.678;9.158;2023-02-03T01:16:05;5.40;;;1.27;;
13432;SDS011;6789;47.678;9.158;2023-02-03T01:21:06;2.23;;;1.20;;
13432;SDS011;6789;47.678;9.158;2023-02-03T01:26:05;5.20;;;0.97;;
13432;SDS011;6789;47.678;9.158;2023-02-03T01:31:16;5.87;;;1.17;;
13432;SDS011;6789;47.678;9.158;2023-02-03T01:36:12;2.37;;;0.87;;
13432;SDS011;6789;47.678;9.158;2023-02-03T01:41:08;1.93;;;0.70;;
13432;SDS011;6789;47.678;9.158;2023-02-03T01:46:19;2.63;;;0.63;;
13432;SDS011;6789;47.678;9.158;2023-02-03T01:51:26;2.90;;;0.87;;
13432;SDS011;6789;47.678;9.158;2023-02-03T01:56:17;2.33;;;0.77;;
13432;SDS011;6789;47.678;9.158;2023-02-03T02:01:09;6.80;;;1.30;;
13432;SDS011;6789;47.678;9.158;2023-02-03T02:06:03;3.03;;;0.80;;
13432;SDS011;6789;47.678;9.158;2023-02-03T02:11:01;3.23;;;1.00;;
13432;SDS011;6789;47.678;9.158;2023-02-03T02:32:15;5.23;;;1.53;;
13432;SDS011;6789;47.678;9.158;2023-02-03T02:48:51;4.00;;;1.30;;
13432;SDS011;6789;47.678;9.158;2023-02-03T02:53:55;3.27;;;1.03;;
13432;SDS011;6789;47.678;9.158;2023-02-03T02:58:52;3.87;;;1.30;;
13432;SDS011;6789;47.678;9.158;2023-02-03T03:03:47;2.20;;;1.10;;
13432;SDS011;6789;47.678;9.158;2023-02-03T03:08:45;6.20;;;1.10;;
13432;SDS011;6789;47.678;9.158;2023-02-03T03:13:55;4.47;;;1.23;;
13432;SDS011;6789;47.678;9.158;2023-02-03T03:18:48;2.43;;;1.00;;
13432;SDS011;6789;47.678;9.158;2023-02-03T03:23:45;1.87;;;1.10;;
13432;SDS011;6789;47.678;9.158;2023-02-03T03:28:56;3.33;;;1.17;;
13432;SDS011;6789;47.678;9.158;2023-02-03T03:34:09;3.57;;;1.07;;
13432;SDS011;6789;47.678;9.158;2023-02-03T03:39:11;4.67;;;1.07;;
13432;SDS011;6789;47.678;9.158;2023-02-03T03:44:13;3.83;;;1.20;;
13432;SDS011;6789;47.678;9.158;2023-02-03T03:49:09;2.10;;;0.80;;
13432;SDS011;6789;47.678;9.158;2023-02-03T03:54:04;3.50;;;0.90;;
13432;SDS011;6789;47.678;9.158;2023-02-03T03:59:02;3.13;;;1.07;;
13432;SDS011;6789;47.678;9.158;2023-02-03T04:03:59;2.30;;;0.70;;
13432;SDS011;6789;47.678;9.158;2023-02-03T04:08:58;1.77;;;1.00;;
13432;SDS011;6789;47.678;9.158;2023-02-03T04:13:49;2.90;;;1.00;;
13432;SDS011;6789;47.678;9.158;2023-02-03T04:18:41;3.10;;;1.00;;
13432;SDS011;6789;47.678;9.158;2023-02-03T04:23:33;4.43;;;1.27;;
13432;SDS011;6789;47.678;9.158;2023-02-03T04:28:25;4.07;;;1.23;;
13432;SDS011;6789;47.678;9.158;2023-02-03T04:33:16;5.10;;;1.23;;
13432;SDS011;6789;47.678;9.158;2023-02-03T04:38:08;5.83;;;1.40;;
13432;SDS011;6789;47.678;9.158;2023-02-03T04:43:04;2.83;;;1.20;;
13432;SDS011;6789;47.678;9.158;2023-02-03T04:47:58;4.10;;;1.23;;
13432;SDS011;6789;47.678;9.158;2023-02-03T04:52:50;1.90;;;0.90;;
13432;SDS011;6789;47.678;9.158;2023-02-03T04:57:41;5.33;;;1.23;;
13432;SDS011;6789;47.678;9.158;2023-02-03T05:02:33;1.83;;;0.93;;
13432;SDS011;6789;47.678;9.158;2023-02-03T05:07:39;1.13;;;1.00;;
13432;SDS011;6789;47.678;9.158;2023-02-03T05:12:45;3.80;;;1.00;;
13432;SDS011;6789;47.678;9.158;2023-02-03T05:17:54;1.93;;;0.80;;
13432;SDS011;6789;47.678;9.158;2023-02-03T05:23:00;5.20;;;1.10;;
13432;SDS011;6789;47.678;9.158;2023-02-03T05:28:06;2.40;;;0.87;;
13432;SDS011;6789;47.678;9.158;2023-02-03T05:33:13;7.73;;;1.37;;
13432;SDS011;6789;47.678;9.158;2023-02-03T05:38:18;2.40;;;0.80;;
13432;SDS011;6789;47.678;9.158;2023-02-03T05:43:25;2.97;;;1.10;;
13432;SDS011;6789;47.678;9.158;2023-02-03T05:48:34;6.90;;;1.30;;
13432;SDS011;6789;47.678;9.158;2023-02-03T05:53:39;3.80;;;1.00;;
13432;SDS011;6789;47.678;9.158;2023-02-03T05:58:45;2.97;;;1.03;;
13432;SDS011;6789;47.678;9.158;2023-02-03T06:03:51;6.03;;;1.50;;
13432;SDS011;6789;47.678;9.158;2023-02-03T06:08:58;4.07;;;1.07;;
13432;SDS011;6789;47.678;9.158;2023-02-03T06:14:11;2.70;;;1.00;;
13432;SDS011;6789;47.678;9.158;2023-02-03T06:19:17;3.43;;;1.23;;
13432;SDS011;6789;47.678;9.158;2023-02-03T06:24:23;7.87;;;1.77;;
13432;SDS011;6789;47.678;9.158;2023-02-03T06:29:29;5.67;;;1.43;;
13432;SDS011;6789;47.678;9.158;2023-02-03T06:34:34;5.87;;;2.50;;
13432;SDS011;6789;47.678;9.158;2023-02-03T06:39:40;4.93;;;1.50;;
13432;SDS011;6789;47.678;9.158;2023-02-03T06:44:46;8.00;;;1.30;;
13432;SDS011;6789;47.678;9.158;2023-02-03T06:49:52;1.63;;;0.83;;
13432;SDS011;6789;47.678;9.158;2023-02-03T06:54:58;4.77;;;1.10;;
13432;SDS011;6789;47.678;9.158;2023-02-03T07:00:04;3.73;;;1.13;;
13432;SDS011;6789;47.678;9.158;2023-02-03T07:05:10;5.97;;;1.30;;
13432;SDS011;6789;47.678;9.158;2023-02-03T07:10:17;3.17;;;1.10;;
13432;SDS011;6789;47.678;9.158;2023-02-03T07:15:23;3.00;;;1.20;;
13432;SDS011;6789;47.678;9.158;2023-02-03T07:20:29;1.83;;;0.90;;
13432;SDS011;6789;47.678;9.158;2023-02-03T07:25:36;3.83;;;1.50;;
13432;SDS011;6789;47.678;9.158;2023-02-03T07:30:42;4.93;;;1.30;;
13432;SDS011;6789;47.678;9.158;2023-02-03T07:35:54;5.90;;;1.20;;
13432;SDS011;6789;47.678;9.158;2023-02-03T07:41:04;2.73;;;1.43;;
13432;SDS011;6789;47.678;9.158;2023-02-03T07:46:11;4.33;;;1.50;;
13432;SDS011;6789;47.678;9.158;2023-02-03T07:51:18;3.57;;;1.40;;
13432;SDS011;6789;47.678;9.158;2023-02-03T07:56:28;3.10;;;1.30;;
13432;SDS011;6789;47.678;9.158;2023-02-03T08:01:36;3.70;;;1.20;;
13432;SDS011;6789;47.678;9.158;2023-02-03T08:06:45;4.97;;;1.40;;
13432;SDS011;6789;47.678;9.158;2023-02-03T08:11:56;3.97;;;1.17;;
13432;SDS011;6789;47.678;9.158;2023-02-03T08:17:09;1.60;;;0.73;;
13432;SDS011;6789;47.678;9.158;2023-02-03T08:22:32;2.20;;;0.90;;
13432;SDS011;6789;47.678;9.158;2023-02-03T08:27:38;4.67;;;1.30;;
13432;SDS011;6789;47.678;9.158;2023-02-03T08:33:19;3.37;;;1.10;;
13432;SDS011;6789;47.678;9.158;2023-02-03T08:38:39;3.60;;;1.20;;
13432;SDS011;6789;47.678;9.158;2023-02-03T08:43:59;3.80;;;1.30;;
13432;SDS011;6789;47.678;9.158;2023-02-03T08:49:06;8.07;;;1.90;;
13432;SDS011;6789;47.678;9.158;2023-02-03T08:59:48;3.87;;;0.90;;
13432;SDS011;6789;47.678;9.158;2023-02-03T09:04:55;5.43;;;1.40;;
13432;SDS011;6789;47.678;9.158;2023-02-03T09:10:01;5.93;;;1.63;;
13432;SDS011;6789;47.678;9.158;2023-02-03T09:15:09;3.03;;;0.90;;
13432;SDS011;6789;47.678;9.158;2023-02-03T09:20:15;5.87;;;1.43;;
13432;SDS011;6789;47.678;9.158;2023-02-03T09:25:22;5.60;;;1.07;;
13432;SDS011;6789;47.678;9.158;2023-02-03T09:30:27;2.80;;;1.23;;
13432;SDS011;6789;47.678;9.158;2023-02-03T09:35:33;5.27;;;1.53;;
13432;SDS011;6789;47.678;9.158;2023-02-03T09:40:39;4.00;;;1.43;;
13432;SDS011;6789;47.678;9.158;2023-02-03T09:45:47;4.23;;;1.17;;
13432;SDS011;6789;47.678;9.158;2023-02-03T09:50:57;3.30;;;1.20;;
13432;SDS011;6789;47.678;9.158;2023-02-03T09:56:08;4.30;;;1.37;;
13432;SDS011;6789;47.678;9.158;2023-02-03T10:01:39;2.23;;;1.20;;
13432;SDS011;6789;47.678;9.158;2023-02-03T10:13:40;2.97;;;1.07;;
13432;SDS011;6789;47.678;9.158;2023-02-03T10:30:48;2.47;;;1.10;;
13432;SDS011;6789;47.678;9.158;2023-02-03T10:36:25;2.73;;;0.90;;
13432;SDS011;6789;47.678;9.158;2023-02-03T10:41:42;1.97;;;1.10;;
13432;SDS011;6789;47.678;9.158;2023-02-03T10:46:51;4.50;;;1.10;;
13432;SDS011;6789;47.678;9.158;2023-02-03T10:52:00;3.27;;;0.87;;
13432;SDS011;6789;47.678;9.158;2023-02-03T10:57:11;2.83;;;1.10;;
13432;SDS011;6789;47.678;9.158;2023-02-03T11:02:24;3.93;;;1.00;;
13432;SDS011;6789;47.678;9.158;2023-02-03T11:07:34;1.00;;;0.70;;
13432;SDS011;6789;47.678;9.158;2023-02-03T11:12:40;3.57;;;1.00;;
13432;SDS011;6789;47.678;9.158;2023-02-03T11:17:46;1.60;;;0.83;;
13432;SDS011;6789;47.678;9.158;2023-02-03T11:22:53;2.67;;;1.07;;
13432;SDS011;6789;47.678;9.158;2023-02-03T11:28:03;2.93;;;1.00;;
13432;SDS011;6789;47.678;9.158;2023-02-03T11:33:18;1.73;;;1.03;;
13432;SDS011;6789;47.678;9.158;2023-02-03T11:38:31;2.63;;;1.00;;
13432;SDS011;6789;47.678;9.158;2023-02-03T11:43:44;2.93;;;1.40;;
13432;SDS011;6789;47.678;9.158;2023-02-03T11:49:00;1.77;;;1.00;;
13432;SDS011;6789;47.678;9.158;2023-02-03T12:18:07;1.50;;;0.83;;
13432;SDS011;6789;47.678;9.158;2023-02-03T12:29:36;1.50;;;0.87;;
13432;SDS011;6789;47.678;9.158;2023-02-03T12:35:31;1.43;;;1.00;;
13432;SDS011;6789;47.678;9.158;2023-02-03T12:40:49;4.10;;;1.30;;
13432;SDS011;6789;47.678;9.158;2023-02-03T12:46:03;1.73;;;0.73;;
13432;SDS011;6789;47.678;9.158;2023-02-03T12:51:27;2.43;;;0.87;;
13432;SDS011;6789;47.678;9.158;2023-02-03T12:57:17;2.73;;;0.60;;
13432;SDS011;6789;47.678;9.158;2023-02-03T13:02:55;3.00;;;0.90;;
13432;SDS011;6789;47.678;9.158;2023-02-03T13:08:21;2.33;;;0.80;;
13432;SDS011;6789;47.678;9.158;2023-02-03T13:13:44;2.63;;;0.93;;
13432;SDS011;6789;47.678;9.158;2023-02-03T13:18:58;2.80;;;1.03;;
13432;SDS011;6789;47.678;9.158;2023-02-03T13:24:17;1.30;;;0.70;;
13432;SDS011;6789;47.678;9.158;2023-02-03T13:35:27;1.47;;;0.70;;
13432;SDS011;6789;47.678;9.158;2023-02-03T13:41:05;1.67;;;0.53;;
13432;SDS011;6789;47.678;9.158;2023-02-03T13:46:28;2.23;;;0.77;;
13432;SDS011;6789;47.678;9.158;2023-02-03T13:51:43;2.40;;;1.13;;
13432;SDS011;6789;47.678;9.158;2023-02-03T13:57:04;4.80;;;1.23;;
13432;SDS011;6789;47.678;9.158;2023-02-03T14:02:53;1.97;;;0.70;;
13432;SDS011;6789;47.678;9.158;2023-02-03T14:13:30;1.67;;;0.80;;
13432;SDS011;6789;47.678;9.158;2023-02-03T14:18:43;2.73;;;0.63;;
13432;SDS011;6789;47.678;9.158;2023-02-03T14:23:52;3.33;;;0.87;;
13432;SDS011;6789;47.678;9.158;2023-02-03T14:29:30;1.23;;;0.67;;
13432;SDS011;6789;47.678;9.158;2023-02-03T14:52:05;0.97;;;0.50;;
13432;SDS011;6789;47.678;9.158;2023-02-03T15:13:56;3.00;;;0.50;;
13432;SDS011;6789;47.678;9.158;2023-02-03T15:19:26;7.53;;;0.60;;
13432;SDS011;6789;47.678;9.158;2023-02-03T15:24:40;0.60;;;0.40;;
13432;SDS011;6789;47.678;9.158;2023-02-03T15:29:47;0.80;;;0.57;;
13432;SDS011;6789;47.678;9.158;2023-02-03T15:34:54;0.67;;;0.40;;
13432;SDS011;6789;47.678;9.158;2023-02-03T15:40:18;0.97;;;0.40;;
13432;SDS011;6789;47.678;9.158;2023-02-03T15:50:45;2.00;;;0.50;;
13432;SDS011;6789;47.678;9.158;2023-02-03T15:56:02;1.27;;;0.30;;
13432;SDS011;6789;47.678;9.158;2023-02-03T16:01:11;0.60;;;0.37;;
13432;SDS011;6789;47.678;9.158;2023-02-03T16:06:31;0.30;;;0.30;;
13432;SDS011;6789;47.678;9.158;2023-02-03T16:11:43;3.07;;;0.30;;
13432;SDS011;6789;47.678;9.158;2023-02-03T16:16:49;0.30;;;0.27;;
13432;SDS011;6789;47.678;9.158;2023-02-03T16:21:57;0.23;;;0.20;;
13432;SDS011;6789;47.678;9.158;2023-02-03T16:32:38;0.47;;;0.40;;
13432;SDS011;6789;47.678;9.158;2023-02-03T16:38:04;0.87;;;0.50;;
13432;SDS011;6789;47.678;9.158;2023-02-03T16:43:37;1.43;;;0.50;;
13432;SDS011;6789;47.678;9.158;2023-02-03T16:49:03;1.00;;;0.53;;
13432;SDS011;6789;47.678;9.158;2023-02-03T16:54:28;0.80;;;0.60;;
13432;SDS011;6789;47.678;9.158;2023-02-03T16:59:34;1.53;;;0.60;;
13432;SDS011;6789;47.678;9.158;2023-02-03T17:04:40;1.27;;;0.60;;
13432;SDS011;6789;47.678;9.158;2023-02-03T17:09:46;1.10;;;0.73;;
13432;SDS011;6789;47.678;9.158;2023-02-03T17:14:52;1.53;;;0.70;;
13432;SDS011;6789;47.678;9.158;2023-02-03T17:20:01;0.87;;;0.60;;
13432;SDS011;6789;47.678;9.158;2023-02-03T17:25:11;1.10;;;0.70;;
13432;SDS011;6789;47.678;9.158;2023-02-03T17:30:17;1.67;;;0.80;;
13432;SDS011;6789;47.678;9.158;2023-02-03T17:35:23;1.37;;;0.90;;
13432;SDS011;6789;47.678;9.158;2023-02-03T17:40:29;2.53;;;0.80;;
13432;SDS011;6789;47.678;9.158;2023-02-03T17:45:39;2.43;;;0.60;;
13432;SDS011;6789;47.678;9.158;2023-02-03T17:50:49;0.83;;;0.43;;
13432;SDS011;6789;47.678;9.158;2023-02-03T17:56:04;0.67;;;0.53;;
13432;SDS011;6789;47.678;9.158;2023-02-03T18:01:17;1.33;;;0.30;;
13432;SDS011;6789;47.678;9.158;2023-02-03T18:06:25;1.27;;;0.60;;
13432;SDS011;6789;47.678;9.158;2023-02-03T18:11:33;1.03;;;0.40;;
13432;SDS011;6789;47.678;9.158;2023-02-03T18:16:41;1.03;;;0.57;;
13432;SDS011;6789;47.678;9.158;2023-02-03T18:21:47;2.50;;;0.60;;
13432;SDS011;6789;47.678;9.158;2023-02-03T18:26:53;0.57;;;0.40;;
13432;SDS011;6789;47.678;9.158;2023-02-03T18:32:01;1.40;;;0.57;;
13432;SDS011;6789;47.678;9.158;2023-02-03T18:37:07;1.33;;;0.43;;
13432;SDS011;6789;47.678;9.158;2023-02-03T18:42:13;1.43;;;0.60;;
13432;SDS011;6789;47.678;9.158;2023-02-03T18:47:19;1.63;;;0.43;;
13432;SDS011;6789;47.678;9.158;2023-02-03T18:52:26;2.43;;;0.53;;
13432;SDS011;6789;47.678;9.158;2023-02-03T18:57:32;0.93;;;0.50;;
13432;SDS011;6789;47.678;9.158;2023-02-03T19:02:38;0.77;;;0.50;;
13432;SDS011;6789;47.678;9.158;2023-02-03T19:07:44;1.60;;;0.50;;
13432;SDS011;6789;47.678;9.158;2023-02-03T19:12:50;0.63;;;0.40;;
13432;SDS011;6789;47.678;9.158;2023-02-03T19:17:56;0.90;;;0.50;;
13432;SDS011;6789;47.678;9.158;2023-02-03T19:23:02;1.07;;;0.50;;
13432;SDS011;6789;47.678;9.158;2023-02-03T19:28:12;0.57;;;0.50;;
13432;SDS011;6789;47.678;9.158;2023-02-03T19:33:18;1.77;;;0.47;;
13432;SDS011;6789;47.678;9.158;2023-02-03T19:38:24;1.10;;;0.60;;
13432;SDS011;6789;47.678;9.158;2023-02-03T19:43:29;0.60;;;0.60;;
13432;SDS011;6789;47.678;9.158;2023-02-03T19:48:55;2.93;;;0.60;;
13432;SDS011;6789;47.678;9.158;2023-02-03T19:54:02;0.60;;;0.40;;
13432;SDS011;6789;47.678;9.158;2023-02-03T19:59:10;1.03;;;0.53;;
13432;SDS011;6789;47.678;9.158;2023-02-03T20:04:16;1.90;;;0.50;;
13432;SDS011;6789;47.678;9.158;2023-02-03T20:09:22;2.40;;;0.70;;
13432;SDS011;6789;47.678;9.158;2023-02-03T20:14:28;1.07;;;0.50;;
13432;SDS011;6789;47.678;9.158;2023-02-03T20:19:34;0.70;;;0.50;;
13432;SDS011;6789;47.678;9.158;2023-02-03T20:24:40;1.10;;;0.60;;
13432;SDS011;6789;47.678;9.158;2023-02-03T20:29:46;0.90;;;0.40;;
13432;SDS011;6789;47.678;9.158;2023-02-03T20:34:53;0.77;;;0.53;;
13432;SDS011;6789;47.678;9.158;2023-02-03T20:40:02;0.57;;;0.57;;
13432;SDS011;6789;47.678;9.158;2023-02-03T20:45:23;1.57;;;0.63;;
13432;SDS011;6789;47.678;9.158;2023-02-03T20:50:29;0.70;;;0.50;;
13432;SDS011;6789;47.678;9.158;2023-02-03T20:55:35;0.87;;;0.43;;
13432;SDS011;6789;47.678;9.158;2023-02-03T21:00:41;2.00;;;0.50;;
13432;SDS011;6789;47.678;9.158;2023-02-03T21:05:47;0.97;;;0.70;;
13432;SDS011;6789;47.678;9.158;2023-02-03T21:10:53;0.50;;;0.50;;
13432;SDS011;6789;47.678;9.158;2023-02-03T21:16:01;0.60;;;0.50;;
13432;SDS011;6789;47.678;9.158;2023-02-03T21:21:37;0.60;;;0.57;;
13432;SDS011;6789;47.678;9.158;2023-02-03T21:26:46;2.73;;;0.53;;
13432;SDS011;6789;47.678;9.158;2023-02-03T21:31:53;2.00;;;0.70;;
13432;SDS011;6789;47.678;9.158;2023-02-03T21:37:07;0.97;;;0.73;;
13432;SDS011;6789;47.678;9.158;2023-02-03T21:42:40;0.70;;;0.50;;
13432;SDS011;6789;47.678;9.158;2023-02-03T21:47:47;0.97;;;0.60;;
13432;SDS011;6789;47.678;9.158;2023-02-03T21:52:56;0.47;;;0.43;;
13432;SDS011;6789;47.678;9.158;2023-02-03T21:58:24;0.70;;;0.50;;
13432;SDS011;6789;47.678;9.158;2023-02-03T22:03:41;1.23;;;0.67;;
13432;SDS011;6789;47.678;9.158;2023-02-03T22:08:52;1.30;;;0.77;;
13432;SDS011;6789;47.678;9.158;2023-02-03T22:14:03;1.30;;;0.43;;
13432;SDS011;6789;47.678;9.158;2023-02-03T22:19:09;1.03;;;0.80;;
13432;SDS011;6789;47.678;9.158;2023-02-03T22:24:17;1.20;;;0.60;;
13432;SDS011;6789;47.678;9.158;2023-02-03T22:29:44;0.63;;;0.50;;
13432;SDS011;6789;47.678;9.158;2023-02-03T22:34:49;0.83;;;0.70;;
13432;SDS011;6789;47.678;9.158;2023-02-03T22:39:55;0.83;;;0.70;;
13432;SDS011;6789;47.678;9.158;2023-02-03T22:45:03;2.93;;;0.70;;
13432;SDS011;6789;47.678;9.158;2023-02-03T22:50:11;1.63;;;0.63;;
13432;SDS011;6789;47.678;9.158;2023-02-03T22:55:19;1.77;;;0.60;;
13432;SDS011;6789;47.678;9.158;2023-02-03T23:00:25;0.50;;;0.50;;
13432;SDS011;6789;47.678;9.158;2023-02-03T23:05:32;3.17;;;0.50;;
13432;SDS011;6789;47.678;9.158;2023-02-03T23:10:38;1.27;;;0.70;;
13432;SDS011;6789;47.678;9.158;2023-02-03T23:15:44;0.60;;;0.60;;
13432;SDS011;6789;47.678;9.158;2023-02-03T23:20:50;1.10;;;0.57;;
13432;SDS011;6789;47.678;9.158;2023-02-03T23:26:06;1.63;;;0.80;;
13432;SDS011;6789;47.678;9.158;2023-02-03T23:31:12;1.10;;;0.60;;
13432;SDS011;6789;47.678;9.158;2023-02-03T23:36:22;1.43;;;0.77;;
13432;SDS011;6789;47.678;9.158;2023-02-03T23:41:29;0.73;;;0.60;;
13432;SDS011;6789;47.678;9.158;2023-02-03T23:46:35;3.63;;;1.00;;
13432;SDS011;6789;47.678;9.158;2023-02-03T23:51:41;1.17;;;0.90;;
13432;SDS011;6789;47.678;9.158;2023-02-03T23:56:47;1.33;;;0.73;;
